Time;durP1;ratioP1;P1;durP2;ratioP2;P2;SDS_P1;SDS_P2;PMS_P1;PMS_P2;Temp;Humidity;BMP_temperature;BMP_pressure;BME280_temperature;BME280_humidity;BME280_pressure;Samples;Min_cycle;Max_cycle;Signal;HPM_P1;HPM_P2
2021/01/24 00:02:26;;;;;;;8.68;4.30;;;26.50;82.90;;;;;;6328044;22;20020;-90
2021/01/24 00:04:56;;;;;;;8.73;4.47;;;26.50;82.20;;;;;;6300880;22;20026;-87
2021/01/24 00:07:47;;;;;;;12.02;4.70;;;26.50;82.60;;;;;;6329465;22;20025;-87
2021/01/24 00:10:17;;;;;;;9.88;3.72;;;26.50;83.40;;;;;;6328930;22;20001;-89
2021/01/24 00:12:47;;;;;;;10.15;3.97;;;26.30;83.40;;;;;;6353404;22;20242;-88
2021/01/24 00:15:15;;;;;;;12.68;5.10;;;26.30;84.00;;;;;;6336288;22;19995;-89
2021/01/24 00:17:50;;;;;;;11.02;4.93;;;26.30;83.00;;;;;;6328986;22;20014;-89
2021/01/24 00:20:19;;;;;;;7.60;4.32;;;26.30;83.10;;;;;;6328774;22;19983;-88
2021/01/24 00:22:56;;;;;;;9.07;4.00;;;26.30;83.90;;;;;;6358220;22;20044;-90
2021/01/24 00:25:44;;;;;;;9.02;4.20;;;26.20;83.20;;;;;;6331437;22;19994;-89
2021/01/24 00:28:25;;;;;;;9.93;4.18;;;26.10;83.40;;;;;;6334614;22;19995;-89
2021/01/24 00:30:51;;;;;;;11.35;4.07;;;26.20;83.30;;;;;;6330164;22;20014;-89
2021/01/24 00:33:24;;;;;;;11.23;4.10;;;26.20;82.90;;;;;;6356202;22;19994;-89
2021/01/24 00:35:55;;;;;;;11.07;3.70;;;26.20;82.70;;;;;;6329325;22;20003;-89
2021/01/24 00:44:48;;;;;;;9.35;4.10;;;26.00;82.50;;;;;;6354385;22;20072;-89
2021/01/24 00:47:15;;;;;;;7.05;3.92;;;26.00;82.50;;;;;;6231208;23;19996;-91
2021/01/24 00:50:30;;;;;;;6.05;3.53;;;25.90;82.70;;;;;;6203748;23;19997;-88
2021/01/24 00:53:01;;;;;;;9.15;3.38;;;25.80;82.50;;;;;;6331068;22;20018;-90
2021/01/24 00:55:32;;;;;;;6.95;3.42;;;25.90;83.00;;;;;;6333089;22;19990;-90
2021/01/24 00:58:05;;;;;;;12.88;4.20;;;25.80;81.80;;;;;;6335544;22;20225;-88
2021/01/24 01:00:31;;;;;;;15.38;5.68;;;25.80;82.30;;;;;;6355885;22;20279;-89
2021/01/24 01:03:07;;;;;;;50.85;21.63;;;25.80;81.90;;;;;;6325860;22;20001;-90
2021/01/24 01:05:35;;;;;;;46.13;19.30;;;25.80;81.60;;;;;;6340877;22;20078;-90
2021/01/24 01:08:01;;;;;;;32.85;16.92;;;25.80;81.40;;;;;;6336176;22;20003;-93
2021/01/24 01:14:58;;;;;;;;;;;;;;;;;;;;;
2021/01/24 01:17:42;;;;;;;22.80;10.68;;;25.50;82.60;;;;;;6186964;23;19988;-90
2021/01/24 01:21:07;;;;;;;21.88;7.57;;;25.50;82.80;;;;;;6206079;23;20033;-91
2021/01/24 01:23:33;;;;;;;14.15;6.07;;;25.50;82.90;;;;;;6068254;23;19999;-89
2021/01/24 01:26:06;;;;;;;10.93;5.07;;;25.50;82.50;;;;;;6084522;23;20013;-90
2021/01/24 01:32:00;;;;;;;8.60;4.03;;;25.50;82.30;;;;;;6086334;23;20009;-90
2021/01/24 01:34:45;;;;;;;5.45;3.33;;;25.50;82.00;;;;;;6205971;23;20004;-91
2021/01/24 01:45:03;;;;;;;7.28;3.88;;;25.30;81.80;;;;;;6229487;23;20051;-89
2021/01/24 01:48:23;;;;;;;11.40;3.95;;;25.30;81.80;;;;;;6115602;23;20017;-90
2021/01/24 01:57:09;;;;;;;;;;;25.20;81.70;;;;;;6353159;22;20010;-90
2021/01/24 01:59:39;;;;;;;7.18;4.32;;;25.10;82.50;;;;;;6375928;22;19955;-90
2021/01/24 02:02:50;;;;;;;10.23;3.65;;;25.10;83.20;;;;;;6353725;22;20006;-90
2021/01/24 02:05:58;;;;;;;7.43;3.42;;;24.90;82.70;;;;;;6304006;22;20237;-90
2021/01/24 02:12:38;;;;;;;7.80;4.30;;;24.90;82.60;;;;;;6330565;22;20062;-90
2021/01/24 02:15:15;;;;;;;6.55;4.15;;;24.90;82.50;;;;;;6220213;23;20001;-92
2021/01/24 02:17:55;;;;;;;8.15;3.72;;;24.80;82.50;;;;;;6226673;23;20000;-89
2021/01/24 02:20:43;;;;;;;7.50;4.18;;;24.80;82.40;;;;;;6350760;22;20056;-92
2021/01/24 02:27:00;;;;;;;7.22;3.72;;;24.80;82.70;;;;;;6350356;22;20046;-89
2021/01/24 02:29:51;;;;;;;6.15;3.30;;;24.80;82.10;;;;;;6258389;22;20004;-91
2021/01/24 02:32:23;;;;;;;6.03;3.10;;;24.80;82.30;;;;;;6256832;23;20034;-90
2021/01/24 02:34:57;;;;;;;8.77;3.47;;;24.80;81.70;;;;;;6376893;22;19998;-90
2021/01/24 02:37:25;;;;;;;5.32;3.15;;;24.80;81.60;;;;;;6351966;22;20289;-91
2021/01/24 02:39:59;;;;;;;7.70;3.42;;;24.80;81.30;;;;;;6351726;22;20033;-91
2021/01/24 02:42:29;;;;;;;6.10;3.67;;;24.80;81.10;;;;;;6273549;22;20003;-90
2021/01/24 02:45:00;;;;;;;5.70;3.67;;;24.80;80.70;;;;;;6353227;22;20167;-90
2021/01/24 02:47:38;;;;;;;11.55;4.45;;;24.70;80.60;;;;;;6327837;22;19995;-89
2021/01/24 02:50:08;;;;;;;6.20;3.60;;;24.70;81.00;;;;;;6352847;22;20022;-91
2021/01/24 02:52:40;;;;;;;8.25;3.72;;;24.70;80.80;;;;;;6352253;22;20020;-92
2021/01/24 02:55:10;;;;;;;6.53;3.10;;;24.70;80.40;;;;;;6351262;22;20279;-92
2021/01/24 02:57:39;;;;;;;4.63;2.70;;;24.80;80.40;;;;;;6356659;22;19995;-92
2021/01/24 03:00:10;;;;;;;6.25;3.78;;;24.70;80.50;;;;;;6358150;22;19990;-91
2021/01/24 03:02:44;;;;;;;6.70;3.45;;;24.70;80.10;;;;;;6360359;22;19995;-93
2021/01/24 03:05:16;;;;;;;5.90;3.38;;;24.80;79.40;;;;;;6356091;22;19995;-94
2021/01/24 03:07:56;;;;;;;5.60;2.87;;;24.80;79.90;;;;;;6353640;22;20214;-93
2021/01/24 03:10:26;;;;;;;5.07;3.08;;;24.80;79.30;;;;;;6354367;22;20005;-92
2021/01/24 03:13:20;;;;;;;5.05;2.55;;;24.80;78.70;;;;;;6352649;22;20002;-92
2021/01/24 03:15:50;;;;;;;3.75;2.38;;;24.80;78.60;;;;;;6355913;22;20005;-92
2021/01/24 03:18:21;;;;;;;9.95;3.22;;;24.90;78.10;;;;;;6353095;22;20026;-93
2021/01/24 03:20:58;;;;;;;5.50;3.33;;;24.90;77.50;;;;;;6337140;22;20010;-93
2021/01/24 03:23:25;;;;;;;6.05;4.13;;;25.00;76.90;;;;;;6352555;22;20340;-94
2021/01/24 03:25:54;;;;;;;5.45;3.88;;;25.00;77.50;;;;;;6352506;22;20014;-92
2021/01/24 03:28:31;;;;;;;9.88;7.25;;;25.00;76.70;;;;;;6355355;22;20186;-93
2021/01/24 03:31:23;;;;;;;11.95;7.68;;;25.00;76.30;;;;;;6357532;22;20011;-92
2021/01/24 03:34:18;;;;;;;11.20;7.03;;;25.10;76.50;;;;;;6358757;22;19995;-94
2021/01/24 03:39:43;;;;;;;9.25;5.25;;;25.00;77.40;;;;;;6315711;22;20011;-93
2021/01/24 03:47:43;;;;;;;11.43;5.35;;;24.80;78.70;;;;;;6293791;22;20007;-92
2021/01/24 03:50:33;;;;;;;11.25;6.45;;;24.80;79.10;;;;;;6205268;23;20008;-91
2021/01/24 04:04:10;;;;;;;7.05;3.72;;;24.70;78.70;;;;;;6320717;22;20018;-91
2021/01/24 04:06:42;;;;;;;5.55;3.33;;;24.70;78.60;;;;;;6357456;22;20299;-92
2021/01/24 04:09:10;;;;;;;5.80;3.00;;;24.70;78.70;;;;;;6356321;22;20015;-92
2021/01/24 04:12:21;;;;;;;5.30;3.03;;;24.60;79.10;;;;;;6354853;22;20014;-91
2021/01/24 04:14:50;;;;;;;3.80;2.60;;;24.60;78.50;;;;;;6300401;22;20082;-92
2021/01/24 04:20:34;;;;;;;5.85;3.55;;;24.60;78.20;;;;;;6322379;22;20018;-91
2021/01/24 04:23:04;;;;;;;3.88;2.90;;;24.60;78.30;;;;;;6294553;22;20022;-91
2021/01/24 04:25:32;;;;;;;6.55;3.00;;;24.60;78.80;;;;;;6296431;22;20066;-92
2021/01/24 04:28:31;;;;;;;4.70;3.10;;;24.60;79.20;;;;;;6294251;22;19999;-93
2021/01/24 04:31:02;;;;;;;4.22;3.20;;;24.50;79.00;;;;;;6267409;22;20083;-94
2021/01/24 04:33:33;;;;;;;4.10;2.70;;;24.60;79.00;;;;;;6258979;22;20008;-93
2021/01/24 04:36:02;;;;;;;5.07;2.90;;;24.50;79.20;;;;;;6263036;23;20225;-92
2021/01/24 04:38:29;;;;;;;4.88;3.10;;;24.50;78.90;;;;;;6262461;22;20051;-92
2021/01/24 04:40:57;;;;;;;3.42;2.70;;;24.50;79.10;;;;;;6259315;23;20000;-93
2021/01/24 04:43:45;;;;;;;6.68;2.78;;;24.50;79.20;;;;;;6264030;23;19994;-93
2021/01/24 04:46:19;;;;;;;6.28;2.88;;;24.50;79.20;;;;;;6234863;23;20000;-94
2021/01/24 04:48:48;;;;;;;7.18;3.08;;;24.40;79.60;;;;;;6258742;23;20039;-92
2021/01/24 04:51:15;;;;;;;4.60;3.10;;;24.40;79.50;;;;;;6233760;23;20008;-93
2021/01/24 04:53:56;;;;;;;7.35;3.17;;;24.30;80.00;;;;;;6233057;23;19996;-93
2021/01/24 04:56:25;;;;;;;2.92;2.55;;;24.30;80.40;;;;;;6233451;23;20054;-92
2021/01/24 04:58:59;;;;;;;3.72;2.90;;;24.20;80.10;;;;;;6233951;23;20035;-91
2021/01/24 05:01:27;;;;;;;4.78;2.65;;;24.30;80.10;;;;;;6231185;23;20016;-90
2021/01/24 05:03:54;;;;;;;4.15;2.70;;;24.30;80.80;;;;;;6231590;23;19999;-93
2021/01/24 05:06:23;;;;;;;5.78;2.72;;;24.30;80.50;;;;;;6230611;23;20012;-91
2021/01/24 05:08:53;;;;;;;7.65;2.60;;;24.20;80.30;;;;;;6253374;22;19995;-91
2021/01/24 05:11:32;;;;;;;5.35;2.47;;;24.20;80.90;;;;;;6306078;22;20014;-93
2021/01/24 05:14:54;;;;;;;4.28;2.60;;;24.20;80.70;;;;;;6347707;22;19995;-92
2021/01/24 05:17:23;;;;;;;5.53;2.60;;;24.20;81.00;;;;;;6221545;23;20244;-91
2021/01/24 05:19:50;;;;;;;6.20;2.83;;;24.10;81.00;;;;;;6273624;22;20044;-91
2021/01/24 05:22:20;;;;;;;5.35;2.80;;;24.20;81.40;;;;;;6348741;22;20201;-91
2021/01/24 05:24:47;;;;;;;4.40;2.92;;;24.10;81.20;;;;;;6352831;22;20013;-92
2021/01/24 05:27:17;;;;;;;5.22;2.67;;;24.00;81.60;;;;;;6349182;22;19999;-91
2021/01/24 05:29:44;;;;;;;4.05;3.05;;;24.00;81.80;;;;;;6347185;22;19991;-91
2021/01/24 05:32:12;;;;;;;4.57;2.65;;;23.90;82.10;;;;;;6347593;22;20058;-92
2021/01/24 05:34:43;;;;;;;4.78;2.50;;;23.90;81.90;;;;;;6347589;22;20002;-91
2021/01/24 05:37:10;;;;;;;3.27;2.87;;;24.00;82.20;;;;;;6348541;22;20003;-91
2021/01/24 05:39:37;;;;;;;5.75;2.63;;;24.00;81.80;;;;;;6346618;22;19995;-92
2021/01/24 05:42:05;;;;;;;6.38;2.90;;;23.90;82.30;;;;;;6347036;22;20003;-92
2021/01/24 05:44:32;;;;;;;5.57;3.17;;;24.00;82.00;;;;;;6347297;22;19991;-92
2021/01/24 05:47:03;;;;;;;3.58;2.60;;;24.00;82.70;;;;;;6347605;22;19999;-92
2021/01/24 05:49:32;;;;;;;4.23;2.70;;;23.90;82.60;;;;;;6347306;22;20227;-91
2021/01/24 05:52:07;;;;;;;5.40;2.80;;;23.90;82.80;;;;;;6347360;22;20011;-91
2021/01/24 05:54:45;;;;;;;6.18;2.53;;;23.90;83.10;;;;;;6347659;22;20029;-91
2021/01/24 05:57:13;;;;;;;5.25;2.80;;;23.90;82.90;;;;;;6347498;22;19999;-92
2021/01/24 05:59:58;;;;;;;4.22;2.90;;;23.90;83.20;;;;;;6347346;22;20002;-91
2021/01/24 06:02:26;;;;;;;6.43;3.03;;;23.80;83.40;;;;;;6347648;22;20006;-91
2021/01/24 06:04:53;;;;;;;5.90;2.70;;;23.80;83.40;;;;;;6347409;22;20029;-91
2021/01/24 06:07:20;;;;;;;5.22;2.90;;;23.80;83.30;;;;;;6347434;22;20274;-91
2021/01/24 06:09:47;;;;;;;5.57;2.97;;;23.90;83.60;;;;;;6346976;22;20306;-91
2021/01/24 06:12:18;;;;;;;5.40;3.00;;;23.80;83.40;;;;;;6346737;22;20003;-91
2021/01/24 06:14:49;;;;;;;7.57;2.90;;;23.80;83.50;;;;;;6346946;22;20037;-90
2021/01/24 06:17:29;;;;;;;5.37;2.93;;;23.80;83.40;;;;;;6347278;22;20022;-91
2021/01/24 06:20:01;;;;;;;5.93;3.08;;;23.80;83.80;;;;;;6347528;22;20257;-91
2021/01/24 06:22:43;;;;;;;4.93;2.93;;;23.80;83.40;;;;;;6345332;22;20007;-92
2021/01/24 06:25:20;;;;;;;5.40;2.70;;;23.80;83.40;;;;;;6345360;22;20229;-91
2021/01/24 06:28:01;;;;;;;5.63;2.92;;;23.80;83.40;;;;;;6321520;22;19999;-91
2021/01/24 06:30:30;;;;;;;5.97;2.85;;;23.70;83.30;;;;;;6344872;22;19992;-91
2021/01/24 06:33:11;;;;;;;5.25;2.80;;;23.70;83.70;;;;;;6345682;22;19995;-92
2021/01/24 06:35:46;;;;;;;12.05;3.17;;;23.60;84.00;;;;;;6345975;22;19995;-92
2021/01/24 06:38:35;;;;;;;6.57;3.22;;;23.70;83.80;;;;;;6345474;22;20196;-93
2021/01/24 06:41:09;;;;;;;6.65;3.10;;;23.70;84.10;;;;;;6319386;22;20010;-92
2021/01/24 06:43:43;;;;;;;4.03;2.88;;;23.70;84.10;;;;;;6345507;22;20015;-92
2021/01/24 06:46:40;;;;;;;4.22;2.90;;;23.70;84.00;;;;;;6344683;22;20292;-92
2021/01/24 06:49:07;;;;;;;5.88;2.60;;;23.70;84.00;;;;;;6320984;22;20248;-92
2021/01/24 06:51:41;;;;;;;7.03;3.10;;;23.70;83.80;;;;;;6346762;22;19995;-91
2021/01/24 06:54:08;;;;;;;4.53;3.05;;;23.70;83.40;;;;;;6347517;22;20308;-92
2021/01/24 06:56:38;;;;;;;4.43;2.67;;;23.80;83.50;;;;;;6319883;22;20315;-92
2021/01/24 06:59:05;;;;;;;6.15;2.72;;;23.80;83.20;;;;;;6345267;22;20288;-91
2021/01/24 07:01:36;;;;;;;3.83;2.53;;;23.90;83.10;;;;;;6344543;22;20258;-92
2021/01/24 07:04:19;;;;;;;4.80;2.63;;;23.90;82.60;;;;;;6320876;22;20016;-92
2021/01/24 07:06:46;;;;;;;;;;;23.90;82.00;;;;;;6319972;22;20003;-92
2021/01/24 07:09:28;;;;;;;3.80;2.38;;;23.90;82.00;;;;;;6345398;22;19918;-92
2021/01/24 07:12:00;;;;;;;5.20;2.30;;;24.00;81.90;;;;;;6318879;22;20006;-91
2021/01/24 07:14:35;;;;;;;5.15;2.55;;;23.90;82.00;;;;;;6344831;22;20325;-91
2021/01/24 07:17:06;;;;;;;5.55;2.70;;;24.00;81.60;;;;;;6319690;22;20006;-91
2021/01/24 07:19:53;;;;;;;4.78;2.40;;;24.00;81.50;;;;;;6345468;22;19995;-91
2021/01/24 07:22:22;;;;;;;3.60;2.30;;;24.00;81.40;;;;;;6344149;22;20357;-92
2021/01/24 07:24:51;;;;;;;2.83;2.10;;;24.00;81.30;;;;;;6345528;22;20023;-92
2021/01/24 07:27:26;;;;;;;6.63;2.53;;;24.00;81.30;;;;;;6320514;22;19991;-92
2021/01/24 07:29:53;;;;;;;3.08;2.08;;;24.10;81.10;;;;;;6344843;22;20109;-91
2021/01/24 07:32:22;;;;;;;4.15;2.45;;;24.10;81.20;;;;;;6343695;22;19995;-91
2021/01/24 07:34:54;;;;;;;5.28;2.28;;;24.10;80.90;;;;;;6345463;22;19999;-93
2021/01/24 07:37:22;;;;;;;5.03;2.28;;;24.20;80.70;;;;;;6319661;22;20188;-92
2021/01/24 07:39:51;;;;;;;7.22;2.40;;;24.20;80.40;;;;;;6318715;22;20238;-92
2021/01/24 07:42:18;;;;;;;4.40;2.20;;;24.20;80.50;;;;;;6318584;22;20366;-93
2021/01/24 07:44:46;;;;;;;3.63;2.53;;;24.20;80.60;;;;;;6345121;22;20276;-93
2021/01/24 07:47:15;;;;;;;3.58;2.13;;;24.20;80.80;;;;;;6345645;22;19995;-93
2021/01/24 07:49:42;;;;;;;4.18;2.42;;;24.20;80.20;;;;;;6319750;22;19995;-92
2021/01/24 07:52:10;;;;;;;5.07;2.47;;;24.20;80.20;;;;;;6344815;22;20270;-94
2021/01/24 07:54:38;;;;;;;4.00;2.45;;;24.20;80.20;;;;;;6318947;22;19999;-93
2021/01/24 07:57:06;;;;;;;5.43;2.45;;;24.30;79.90;;;;;;6343696;22;19999;-93
2021/01/24 07:59:33;;;;;;;3.15;2.38;;;24.30;79.90;;;;;;6344617;22;20240;-93
2021/01/24 08:02:01;;;;;;;2.92;2.08;;;24.30;79.60;;;;;;6344495;22;19999;-93
2021/01/24 08:04:28;;;;;;;3.35;2.67;;;24.30;79.40;;;;;;6344628;22;19995;-92
2021/01/24 08:06:55;;;;;;;3.88;2.58;;;24.30;79.80;;;;;;6344574;22;20331;-92
2021/01/24 08:09:21;;;;;;;3.33;2.20;;;24.40;79.20;;;;;;6345172;22;20022;-93
2021/01/24 08:11:48;;;;;;;3.85;2.40;;;24.40;78.90;;;;;;6344499;22;19991;-92
2021/01/24 08:14:15;;;;;;;2.85;2.10;;;24.50;78.70;;;;;;6344879;22;20003;-93
2021/01/24 08:16:44;;;;;;;3.80;2.33;;;24.50;78.50;;;;;;6344653;22;20029;-93
2021/01/24 08:19:15;;;;;;;5.43;2.50;;;24.50;78.60;;;;;;6344030;22;20027;-92
2021/01/24 08:21:42;;;;;;;3.17;2.25;;;24.60;78.60;;;;;;6343846;22;20070;-92
2021/01/24 08:24:09;;;;;;;4.18;2.00;;;24.60;78.40;;;;;;6344153;22;20303;-92
2021/01/24 08:26:37;;;;;;;3.22;2.03;;;24.60;78.20;;;;;;6343957;22;19991;-92
2021/01/24 08:29:05;;;;;;;3.67;2.25;;;24.60;78.20;;;;;;6345616;22;20014;-92
2021/01/24 08:31:33;;;;;;;4.63;2.30;;;24.60;78.10;;;;;;6343989;22;19998;-93
2021/01/24 08:34:01;;;;;;;2.47;1.90;;;24.60;78.10;;;;;;6343927;22;20003;-92
2021/01/24 08:36:29;;;;;;;3.40;2.22;;;24.60;78.10;;;;;;6343773;22;20052;-91
2021/01/24 08:38:58;;;;;;;3.63;2.17;;;24.60;77.90;;;;;;6343584;22;20003;-92
2021/01/24 08:41:36;;;;;;;2.58;1.90;;;24.60;78.00;;;;;;6343273;22;20058;-91
2021/01/24 08:44:13;;;;;;;6.50;2.47;;;24.60;78.10;;;;;;6342818;22;20003;-91
2021/01/24 08:46:45;;;;;;;3.60;2.45;;;24.60;78.20;;;;;;6317235;22;20041;-91
2021/01/24 08:49:24;;;;;;;5.43;2.10;;;24.60;78.00;;;;;;6343557;22;20218;-92
2021/01/24 08:51:55;;;;;;;2.78;2.20;;;24.60;78.40;;;;;;6343234;22;19999;-91
2021/01/24 08:54:35;;;;;;;4.07;2.17;;;24.60;78.30;;;;;;6343960;22;20240;-91
2021/01/24 08:57:18;;;;;;;4.32;2.17;;;24.60;78.40;;;;;;6343665;22;19995;-91
2021/01/24 08:59:52;;;;;;;4.82;2.30;;;24.60;78.60;;;;;;6318835;22;20161;-91
2021/01/24 09:02:32;;;;;;;4.03;2.75;;;24.60;78.80;;;;;;6316904;22;20014;-91
2021/01/24 09:05:00;;;;;;;2.65;2.10;;;24.60;78.60;;;;;;6344563;22;20007;-91
2021/01/24 09:07:38;;;;;;;3.22;2.15;;;24.60;79.00;;;;;;6343137;22;19987;-90
2021/01/24 09:10:34;;;;;;;2.83;2.05;;;24.60;78.80;;;;;;6343634;22;19991;-91
2021/01/24 09:13:03;;;;;;;2.13;1.83;;;24.60;78.80;;;;;;6317889;22;20311;-92
2021/01/24 09:15:32;;;;;;;4.03;2.45;;;24.60;78.50;;;;;;6343493;22;19991;-92
2021/01/24 09:18:00;;;;;;;4.63;2.22;;;24.50;78.70;;;;;;6343835;22;20006;-90
2021/01/24 09:20:28;;;;;;;6.05;2.40;;;24.60;78.50;;;;;;6352349;22;20009;-92
2021/01/24 09:22:55;;;;;;;4.95;2.50;;;24.50;78.90;;;;;;6353975;22;20006;-91
2021/01/24 09:25:22;;;;;;;6.18;2.30;;;24.60;78.50;;;;;;6355782;22;20054;-92
2021/01/24 09:27:48;;;;;;;3.72;2.50;;;24.50;78.80;;;;;;6355308;22;19999;-91
2021/01/24 09:30:17;;;;;;;4.90;2.35;;;24.60;78.90;;;;;;6350826;22;20050;-91
2021/01/24 09:32:44;;;;;;;3.35;2.60;;;24.60;79.10;;;;;;6325923;22;19991;-91
2021/01/24 09:35:10;;;;;;;4.35;2.60;;;24.50;79.00;;;;;;6347992;22;19991;-90
2021/01/24 09:37:38;;;;;;;3.22;2.10;;;24.50;78.90;;;;;;6345274;22;20018;-91
2021/01/24 09:40:09;;;;;;;5.38;2.20;;;24.50;78.80;;;;;;6345176;22;20019;-90
2021/01/24 09:42:38;;;;;;;4.07;2.70;;;24.50;78.80;;;;;;6344730;22;20001;-92
2021/01/24 09:45:06;;;;;;;6.05;2.88;;;24.50;79.00;;;;;;6344663;22;20023;-91
2021/01/24 09:47:33;;;;;;;5.78;2.65;;;24.50;79.80;;;;;;6340400;22;19991;-91
2021/01/24 09:50:00;;;;;;;4.90;2.50;;;24.50;79.40;;;;;;6344989;22;20018;-90
2021/01/24 09:52:27;;;;;;;4.45;2.35;;;24.40;79.40;;;;;;6343370;22;19995;-91
2021/01/24 09:54:54;;;;;;;8.20;2.70;;;24.30;80.10;;;;;;6317643;22;20026;-91
2021/01/24 09:57:21;;;;;;;7.43;3.15;;;24.30;80.50;;;;;;6345059;22;20079;-90
2021/01/24 09:59:47;;;;;;;4.25;2.72;;;24.30;80.70;;;;;;6345038;22;20006;-91
2021/01/24 10:02:14;;;;;;;4.93;2.50;;;24.20;80.50;;;;;;6346921;22;20029;-92
2021/01/24 10:04:40;;;;;;;7.30;2.30;;;24.20;80.70;;;;;;6350432;22;19999;-90
2021/01/24 10:07:07;;;;;;;6.65;2.58;;;24.20;81.30;;;;;;6328856;22;20019;-92
2021/01/24 10:09:34;;;;;;;5.13;2.67;;;24.20;81.30;;;;;;6345707;22;20058;-93
2021/01/24 10:12:00;;;;;;;5.28;2.47;;;24.20;81.00;;;;;;6345374;22;20030;-92
2021/01/24 10:14:27;;;;;;;4.78;2.60;;;24.20;81.40;;;;;;6343954;22;19995;-92
2021/01/24 10:16:53;;;;;;;6.63;3.15;;;24.10;81.50;;;;;;6345291;22;20184;-93
2021/01/24 10:19:20;;;;;;;3.60;2.75;;;24.10;81.70;;;;;;6345414;22;20319;-92
2021/01/24 10:21:47;;;;;;;4.72;2.63;;;24.10;81.90;;;;;;6345294;22;19999;-91
2021/01/24 10:24:14;;;;;;;4.93;2.53;;;24.00;81.80;;;;;;6344075;22;19997;-91
2021/01/24 10:26:40;;;;;;;6.22;2.70;;;24.00;81.60;;;;;;6320829;22;20280;-92
2021/01/24 10:29:07;;;;;;;3.83;3.08;;;24.00;81.80;;;;;;6320568;22;20192;-92
2021/01/24 10:31:33;;;;;;;5.25;2.60;;;24.00;81.60;;;;;;6344744;22;20030;-91
2021/01/24 10:34:00;;;;;;;7.18;2.92;;;24.00;81.60;;;;;;6344755;22;19999;-93
2021/01/24 10:36:26;;;;;;;7.38;2.60;;;24.00;81.90;;;;;;6345039;22;20026;-93
2021/01/24 10:38:53;;;;;;;5.15;2.40;;;23.90;81.80;;;;;;6344803;22;20003;-93
2021/01/24 10:41:22;;;;;;;10.25;4.15;;;23.90;81.70;;;;;;6345292;22;20000;-92
2021/01/24 10:44:00;;;;;;;6.57;3.22;;;23.90;82.00;;;;;;6321310;22;20026;-94
2021/01/24 10:46:26;;;;;;;6.10;2.58;;;23.80;81.90;;;;;;6350684;22;19996;-96
2021/01/24 10:48:57;;;;;;;3.13;2.17;;;23.80;82.30;;;;;;6348558;22;19998;-91
2021/01/24 10:51:49;;;;;;;7.82;2.78;;;23.90;82.20;;;;;;6315731;22;20053;-94
2021/01/24 10:54:20;;;;;;;5.50;2.70;;;23.80;82.50;;;;;;6345324;22;19996;-95
2021/01/24 10:56:46;;;;;;;4.53;2.70;;;23.80;82.30;;;;;;6344686;22;19999;-95
2021/01/24 10:59:16;;;;;;;5.65;2.17;;;23.90;82.00;;;;;;6347226;22;20166;-94
2021/01/24 11:01:43;;;;;;;8.07;3.47;;;23.90;81.90;;;;;;6345170;22;20007;-94
2021/01/24 11:04:28;;;;;;;6.75;3.00;;;24.00;81.80;;;;;;6348910;22;19995;-94
2021/01/24 11:06:54;;;;;;;6.10;2.63;;;24.00;81.80;;;;;;6273035;22;20015;-94
2021/01/24 11:09:32;;;;;;;7.18;2.70;;;24.10;81.20;;;;;;6301059;22;19999;-95
2021/01/24 11:12:08;;;;;;;5.82;3.00;;;24.20;81.10;;;;;;6268588;22;20006;-94
2021/01/24 11:14:35;;;;;;;8.60;3.30;;;24.20;81.20;;;;;;6288358;22;19998;-94
2021/01/24 11:17:02;;;;;;;6.43;3.03;;;24.20;81.70;;;;;;6290555;22;20054;-94
2021/01/24 11:19:29;;;;;;;8.75;2.95;;;24.20;81.80;;;;;;6288693;22;20003;-94
2021/01/24 11:21:55;;;;;;;6.85;3.35;;;24.20;82.40;;;;;;6288657;22;20030;-94
2021/01/24 11:24:22;;;;;;;6.38;3.35;;;24.20;82.30;;;;;;6288899;22;19996;-95
2021/01/24 11:26:50;;;;;;;5.97;3.20;;;24.20;82.20;;;;;;6289262;22;19996;-96
2021/01/24 11:29:17;;;;;;;8.15;3.40;;;24.20;82.20;;;;;;6290076;22;20288;-94
2021/01/24 11:31:43;;;;;;;10.77;5.55;;;24.30;82.80;;;;;;6289274;22;20086;-95
2021/01/24 11:34:13;;;;;;;19.48;9.38;;;24.30;82.20;;;;;;6287974;22;20000;-96
2021/01/24 11:37:01;;;;;;;17.48;7.80;;;24.40;81.90;;;;;;6288524;22;20296;-94
2021/01/24 11:39:34;;;;;;;21.08;9.75;;;24.50;81.10;;;;;;6241028;22;19995;-94
2021/01/24 11:42:01;;;;;;;15.43;7.55;;;24.60;81.10;;;;;;6287696;22;20007;-95
2021/01/24 11:44:27;;;;;;;16.98;7.40;;;24.70;81.20;;;;;;6288205;22;20055;-93
2021/01/24 11:47:03;;;;;;;11.55;4.50;;;24.80;80.60;;;;;;6287789;22;19996;-94
2021/01/24 11:49:31;;;;;;;9.55;4.30;;;24.80;80.20;;;;;;6289235;22;20007;-94
2021/01/24 11:51:57;;;;;;;9.00;4.50;;;24.80;80.70;;;;;;6262181;22;20011;-94
2021/01/24 11:54:31;;;;;;;8.48;3.70;;;24.80;80.20;;;;;;6287634;22;20027;-94
2021/01/24 11:56:58;;;;;;;10.70;3.58;;;24.70;80.40;;;;;;6286988;22;20000;-95
2021/01/24 11:59:26;;;;;;;11.25;4.57;;;24.60;81.90;;;;;;6287945;22;20027;-94
2021/01/24 12:02:14;;;;;;;8.40;4.30;;;24.70;82.30;;;;;;6288092;22;20022;-94
2021/01/24 12:04:41;;;;;;;6.07;3.80;;;24.80;81.90;;;;;;6294315;22;20030;-95
2021/01/24 12:07:07;;;;;;;8.93;4.05;;;24.90;81.80;;;;;;6344808;22;20029;-94
2021/01/24 12:09:37;;;;;;;5.72;3.90;;;24.90;81.70;;;;;;6344155;22;20236;-93
2021/01/24 12:12:06;;;;;;;7.47;4.00;;;24.90;81.00;;;;;;6344143;22;20058;-94
2021/01/24 12:14:33;;;;;;;15.70;3.95;;;24.90;82.50;;;;;;6344345;22;19999;-95
2021/01/24 12:17:03;;;;;;;11.20;3.97;;;25.00;82.10;;;;;;6345286;22;19995;-94
2021/01/24 12:19:30;;;;;;;14.93;4.32;;;25.10;81.60;;;;;;6343746;22;19998;-95
2021/01/24 12:21:56;;;;;;;5.15;3.20;;;25.00;83.10;;;;;;6344335;22;20260;-94
2021/01/24 12:24:23;;;;;;;6.60;3.15;;;24.60;83.60;;;;;;6344741;22;20014;-94
2021/01/24 12:26:49;;;;;;;8.10;3.25;;;24.50;84.60;;;;;;6319958;22;19996;-94
2021/01/24 12:29:16;;;;;;;7.90;3.70;;;24.40;84.80;;;;;;6318956;22;20025;-93
2021/01/24 12:31:43;;;;;;;6.15;3.33;;;24.20;86.00;;;;;;6344187;22;20386;-93
2021/01/24 12:34:09;;;;;;;7.00;2.92;;;24.20;86.30;;;;;;6343696;22;19995;-92
2021/01/24 12:36:36;;;;;;;5.70;2.92;;;24.40;85.30;;;;;;6343876;22;20195;-92
2021/01/24 12:39:04;;;;;;;8.68;3.42;;;24.60;85.00;;;;;;6343749;22;20041;-91
2021/01/24 12:41:30;;;;;;;6.47;3.25;;;24.80;84.60;;;;;;6317514;22;20030;-90
2021/01/24 12:43:57;;;;;;;7.07;2.90;;;24.90;84.20;;;;;;6342957;22;20053;-90
2021/01/24 12:46:24;;;;;;;5.82;2.90;;;25.10;84.20;;;;;;6343101;22;20184;-90
2021/01/24 12:48:50;;;;;;;5.55;3.78;;;25.20;83.40;;;;;;6318356;22;20066;-90
2021/01/24 12:51:17;;;;;;;5.63;3.13;;;25.20;83.60;;;;;;6343065;22;20195;-91
2021/01/24 12:53:43;;;;;;;7.72;3.35;;;25.30;83.60;;;;;;6319828;22;20000;-90
2021/01/24 12:56:10;;;;;;;4.05;2.85;;;25.40;83.30;;;;;;6343470;22;20066;-91
2021/01/24 12:58:36;;;;;;;5.43;3.17;;;25.30;83.50;;;;;;6343645;22;20045;-90
2021/01/24 13:01:03;;;;;;;6.50;3.28;;;25.50;83.80;;;;;;6343065;22;20066;-89
2021/01/24 13:03:32;;;;;;;9.70;3.40;;;25.70;83.00;;;;;;6318968;22;20003;-91
2021/01/24 13:05:59;;;;;;;8.23;3.10;;;25.80;82.90;;;;;;6343858;22;20014;-92
2021/01/24 13:08:26;;;;;;;5.70;3.10;;;25.70;83.20;;;;;;6344275;22;20006;-92
2021/01/24 13:10:52;;;;;;;4.97;2.70;;;25.90;83.50;;;;;;6343532;22;20074;-92
2021/01/24 13:13:19;;;;;;;5.85;2.95;;;25.90;83.20;;;;;;6344095;22;20305;-92
2021/01/24 13:15:46;;;;;;;5.28;3.40;;;25.90;83.40;;;;;;6317891;22;20003;-92
2021/01/24 13:18:12;;;;;;;4.15;2.83;;;25.80;83.80;;;;;;6343740;22;20030;-92
2021/01/24 13:20:39;;;;;;;8.40;3.15;;;25.70;84.40;;;;;;6343228;22;20062;-89
2021/01/24 13:23:06;;;;;;;6.53;3.30;;;25.80;84.40;;;;;;6343245;22;19997;-91
2021/01/24 13:25:32;;;;;;;6.57;2.78;;;25.60;84.50;;;;;;6343897;22;20005;-91
2021/01/24 13:27:59;;;;;;;4.18;2.55;;;25.60;85.00;;;;;;6349258;22;19998;-92
2021/01/24 13:30:31;;;;;;;5.82;3.10;;;25.60;85.20;;;;;;6347790;22;20025;-91
2021/01/24 13:33:00;;;;;;;;;;;25.60;85.40;;;;;;6327706;22;19999;-91
2021/01/24 13:35:27;;;;;;;6.00;2.63;;;25.60;85.20;;;;;;6351270;22;19944;-91
2021/01/24 13:38:40;;;;;;;5.20;2.95;;;25.60;85.70;;;;;;6356209;22;19998;-91
2021/01/24 13:41:06;;;;;;;6.57;2.58;;;25.50;86.20;;;;;;6325959;22;20341;-92
2021/01/24 13:43:34;;;;;;;5.00;2.72;;;25.60;86.10;;;;;;6330328;22;20296;-92
2021/01/24 13:46:01;;;;;;;11.75;5.57;;;25.60;85.90;;;;;;6346625;22;20007;-92
2021/01/24 13:48:45;;;;;;;8.15;3.55;;;25.70;85.70;;;;;;6346254;22;19999;-92
2021/01/24 13:56:41;;;;;;;5.43;3.40;;;25.30;87.20;;;;;;6344966;22;20215;-91
2021/01/24 13:59:07;;;;;;;3.58;2.50;;;25.20;88.50;;;;;;6325604;22;19999;-92
2021/01/24 14:01:40;;;;;;;6.70;3.20;;;25.20;87.90;;;;;;6324522;22;19999;-89
2021/01/24 14:04:08;;;;;;;8.52;4.28;;;25.20;88.60;;;;;;6327836;22;20299;-92
2021/01/24 14:06:37;;;;;;;9.63;4.30;;;25.20;89.00;;;;;;6324198;22;20179;-90
2021/01/24 14:09:05;;;;;;;6.85;3.80;;;25.20;88.10;;;;;;6327244;22;20016;-91
2021/01/24 14:11:31;;;;;;;8.32;3.97;;;25.20;90.20;;;;;;6356894;22;20001;-90
2021/01/24 14:13:58;;;;;;;8.27;3.85;;;24.90;90.70;;;;;;6353058;22;19995;-91
2021/01/24 14:16:45;;;;;;;7.53;4.55;;;24.90;90.70;;;;;;6324752;22;20015;-91
2021/01/24 14:19:16;;;;;;;8.15;4.85;;;24.80;91.10;;;;;;6352128;22;20006;-92